sensor_id;sensor_type;location;lat;lon;timestamp;temperature;humidity
17988;DHT22;9119;50.932;5.342;2022-09-13T00:01:05;19.80;99.90
17988;DHT22;9119;50.932;5.342;2022-09-13T00:03:31;19.90;99.90
17988;DHT22;9119;50.932;5.342;2022-09-13T00:05:57;19.80;99.90
17988;DHT22;9119;50.932;5.342;2022-09-13T00:08:22;19.90;99.90
17988;DHT22;9119;50.932;5.342;2022-09-13T00:10:48;19.90;99.90
17988;DHT22;9119;50.932;5.342;2022-09-13T00:13:14;19.80;99.90
17988;DHT22;9119;50.932;5.342;2022-09-13T00:15:45;19.60;99.90
17988;DHT22;9119;50.932;5.342;2022-09-13T00:18:12;19.60;99.90
17988;DHT22;9119;50.932;5.342;2022-09-13T00:20:38;19.50;99.90
17988;DHT22;9119;50.932;5.342;2022-09-13T00:23:03;19.40;99.90
17988;DHT22;9119;50.932;5.342;2022-09-13T00:25:29;19.40;99.90
17988;DHT22;9119;50.932;5.342;2022-09-13T00:27:55;19.30;99.90
17988;DHT22;9119;50.932;5.342;2022-09-13T00:30:20;19.30;99.90
17988;DHT22;9119;50.932;5.342;2022-09-13T00:32:46;19.20;99.90
17988;DHT22;9119;50.932;5.342;2022-09-13T00:35:12;19.20;99.90
17988;DHT22;9119;50.932;5.342;2022-09-13T00:37:37;19.10;99.90
17988;DHT22;9119;50.932;5.342;2022-09-13T00:40:04;19.10;99.90
17988;DHT22;9119;50.932;5.342;2022-09-13T00:42:31;19.10;99.90
17988;DHT22;9119;50.932;5.342;2022-09-13T00:53:06;18.90;99.90
17988;DHT22;9119;50.932;5.342;2022-09-13T00:55:43;19.00;99.90
17988;DHT22;9119;50.932;5.342;2022-09-13T00:58:19;18.90;99.90
17988;DHT22;9119;50.932;5.342;2022-09-13T01:00:46;19.00;99.90
17988;DHT22;9119;50.932;5.342;2022-09-13T01:03:15;19.00;99.90
17988;DHT22;9119;50.932;5.342;2022-09-13T01:05:45;19.00;99.90
17988;DHT22;9119;50.932;5.342;2022-09-13T01:08:13;19.00;99.90
17988;DHT22;9119;50.932;5.342;2022-09-13T01:10:50;19.00;99.90
17988;DHT22;9119;50.932;5.342;2022-09-13T01:13:25;18.90;99.90
17988;DHT22;9119;50.932;5.342;2022-09-13T01:15:52;18.90;99.90
17988;DHT22;9119;50.932;5.342;2022-09-13T01:18:18;18.90;99.90
17988;DHT22;9119;50.932;5.342;2022-09-13T01:46:17;19.00;99.90
17988;DHT22;9119;50.932;5.342;2022-09-13T01:49:02;19.00;99.90
17988;DHT22;9119;50.932;5.342;2022-09-13T01:51:38;19.10;99.90
17988;DHT22;9119;50.932;5.342;2022-09-13T01:57:15;19.10;99.90
17988;DHT22;9119;50.932;5.342;2022-09-13T01:59:46;19.10;99.90
17988;DHT22;9119;50.932;5.342;2022-09-13T02:02:22;19.10;99.90
17988;DHT22;9119;50.932;5.342;2022-09-13T02:05:21;19.20;99.90
17988;DHT22;9119;50.932;5.342;2022-09-13T02:07:49;19.20;99.90
17988;DHT22;9119;50.932;5.342;2022-09-13T02:10:25;19.20;99.90
17988;DHT22;9119;50.932;5.342;2022-09-13T02:12:52;19.20;99.90
17988;DHT22;9119;50.932;5.342;2022-09-13T02:15:43;19.30;99.90
17988;DHT22;9119;50.932;5.342;2022-09-13T02:18:25;19.40;99.90
17988;DHT22;9119;50.932;5.342;2022-09-13T02:20:54;19.40;99.90
17988;DHT22;9119;50.932;5.342;2022-09-13T02:23:51;19.50;99.90
17988;DHT22;9119;50.932;5.342;2022-09-13T02:26:17;19.60;99.90
17988;DHT22;9119;50.932;5.342;2022-09-13T02:28:47;19.60;99.90
17988;DHT22;9119;50.932;5.342;2022-09-13T02:31:18;19.60;99.90
17988;DHT22;9119;50.932;5.342;2022-09-13T02:33:50;19.60;99.90
17988;DHT22;9119;50.932;5.342;2022-09-13T02:36:24;19.50;99.90
17988;DHT22;9119;50.932;5.342;2022-09-13T02:39:08;19.50;99.90
17988;DHT22;9119;50.932;5.342;2022-09-13T02:44:32;19.30;99.90
17988;DHT22;9119;50.932;5.342;2022-09-13T03:00:44;18.80;99.90
17988;DHT22;9119;50.932;5.342;2022-09-13T03:03:12;18.70;99.90
17988;DHT22;9119;50.932;5.342;2022-09-13T03:05:39;18.70;99.90
17988;DHT22;9119;50.932;5.342;2022-09-13T03:08:05;18.70;99.90
17988;DHT22;9119;50.932;5.342;2022-09-13T03:22:06;18.70;99.90
17988;DHT22;9119;50.932;5.342;2022-09-13T03:28:03;18.70;99.90
17988;DHT22;9119;50.932;5.342;2022-09-13T03:30:33;18.80;99.90
17988;DHT22;9119;50.932;5.342;2022-09-13T03:33:06;18.80;99.90
17988;DHT22;9119;50.932;5.342;2022-09-13T03:36:01;18.90;99.90
17988;DHT22;9119;50.932;5.342;2022-09-13T03:38:55;18.90;99.90
17988;DHT22;9119;50.932;5.342;2022-09-13T03:41:26;19.00;99.90
17988;DHT22;9119;50.932;5.342;2022-09-13T03:44:01;19.00;99.90
17988;DHT22;9119;50.932;5.342;2022-09-13T03:46:32;19.00;99.90
17988;DHT22;9119;50.932;5.342;2022-09-13T03:49:09;19.00;99.90
17988;DHT22;9119;50.932;5.342;2022-09-13T03:51:38;19.00;99.90
17988;DHT22;9119;50.932;5.342;2022-09-13T03:54:07;19.10;99.90
17988;DHT22;9119;50.932;5.342;2022-09-13T03:56:34;19.10;99.90
17988;DHT22;9119;50.932;5.342;2022-09-13T03:58:59;19.20;99.90
17988;DHT22;9119;50.932;5.342;2022-09-13T04:01:25;19.20;99.90
17988;DHT22;9119;50.932;5.342;2022-09-13T04:03:51;19.10;99.90
17988;DHT22;9119;50.932;5.342;2022-09-13T04:06:17;19.10;99.90
17988;DHT22;9119;50.932;5.342;2022-09-13T04:08:42;19.10;99.90
17988;DHT22;9119;50.932;5.342;2022-09-13T04:11:09;19.00;99.90
17988;DHT22;9119;50.932;5.342;2022-09-13T04:13:35;19.00;99.90
17988;DHT22;9119;50.932;5.342;2022-09-13T04:16:03;19.00;99.90
17988;DHT22;9119;50.932;5.342;2022-09-13T04:18:29;19.00;99.90
17988;DHT22;9119;50.932;5.342;2022-09-13T04:20:57;19.00;99.90
17988;DHT22;9119;50.932;5.342;2022-09-13T04:23:23;18.90;99.90
17988;DHT22;9119;50.932;5.342;2022-09-13T04:25:49;19.00;99.90
17988;DHT22;9119;50.932;5.342;2022-09-13T04:28:19;19.00;99.90
17988;DHT22;9119;50.932;5.342;2022-09-13T04:30:46;19.00;99.90
17988;DHT22;9119;50.932;5.342;2022-09-13T04:33:13;19.10;99.90
17988;DHT22;9119;50.932;5.342;2022-09-13T04:35:38;19.00;99.90
17988;DHT22;9119;50.932;5.342;2022-09-13T04:38:05;18.90;99.90
17988;DHT22;9119;50.932;5.342;2022-09-13T04:40:31;18.90;99.90
17988;DHT22;9119;50.932;5.342;2022-09-13T04:42:57;18.90;99.90
17988;DHT22;9119;50.932;5.342;2022-09-13T04:45:22;18.90;99.90
17988;DHT22;9119;50.932;5.342;2022-09-13T04:47:52;18.90;99.90
17988;DHT22;9119;50.932;5.342;2022-09-13T04:50:19;18.90;99.90
17988;DHT22;9119;50.932;5.342;2022-09-13T04:52:45;19.00;99.90
17988;DHT22;9119;50.932;5.342;2022-09-13T04:55:11;19.00;99.90
17988;DHT22;9119;50.932;5.342;2022-09-13T04:57:37;18.90;99.90
17988;DHT22;9119;50.932;5.342;2022-09-13T05:00:04;18.90;99.90
17988;DHT22;9119;50.932;5.342;2022-09-13T05:02:30;18.80;99.90
17988;DHT22;9119;50.932;5.342;2022-09-13T05:04:55;18.90;99.90
17988;DHT22;9119;50.932;5.342;2022-09-13T05:07:22;18.90;99.90
17988;DHT22;9119;50.932;5.342;2022-09-13T05:09:47;19.00;99.90
17988;DHT22;9119;50.932;5.342;2022-09-13T05:12:13;19.00;99.90
17988;DHT22;9119;50.932;5.342;2022-09-13T05:14:39;19.00;99.90
17988;DHT22;9119;50.932;5.342;2022-09-13T05:17:04;19.00;99.90
17988;DHT22;9119;50.932;5.342;2022-09-13T05:19:30;19.10;99.90
17988;DHT22;9119;50.932;5.342;2022-09-13T05:21:55;19.00;99.90
17988;DHT22;9119;50.932;5.342;2022-09-13T05:24:21;19.00;99.90
17988;DHT22;9119;50.932;5.342;2022-09-13T05:26:47;19.00;99.90
17988;DHT22;9119;50.932;5.342;2022-09-13T05:29:12;19.00;99.90
17988;DHT22;9119;50.932;5.342;2022-09-13T05:31:39;19.00;99.90
17988;DHT22;9119;50.932;5.342;2022-09-13T05:34:13;19.00;99.90
17988;DHT22;9119;50.932;5.342;2022-09-13T05:36:40;19.00;99.90
17988;DHT22;9119;50.932;5.342;2022-09-13T05:39:06;19.00;99.90
17988;DHT22;9119;50.932;5.342;2022-09-13T05:41:32;19.00;99.90
17988;DHT22;9119;50.932;5.342;2022-09-13T05:43:58;19.10;99.90
17988;DHT22;9119;50.932;5.342;2022-09-13T05:46:25;19.10;99.90
17988;DHT22;9119;50.932;5.342;2022-09-13T05:48:50;19.10;99.90
17988;DHT22;9119;50.932;5.342;2022-09-13T05:51:18;19.20;99.90
17988;DHT22;9119;50.932;5.342;2022-09-13T05:53:47;19.30;99.90
17988;DHT22;9119;50.932;5.342;2022-09-13T05:56:19;19.30;99.90
17988;DHT22;9119;50.932;5.342;2022-09-13T05:58:47;19.10;99.90
17988;DHT22;9119;50.932;5.342;2022-09-13T06:01:14;19.20;99.90
17988;DHT22;9119;50.932;5.342;2022-09-13T06:03:40;19.20;99.90
17988;DHT22;9119;50.932;5.342;2022-09-13T06:06:07;19.20;99.90
17988;DHT22;9119;50.932;5.342;2022-09-13T06:08:34;19.20;99.90
17988;DHT22;9119;50.932;5.342;2022-09-13T06:11:02;19.00;99.90
17988;DHT22;9119;50.932;5.342;2022-09-13T06:13:29;19.10;99.90
17988;DHT22;9119;50.932;5.342;2022-09-13T06:15:56;19.10;99.90
17988;DHT22;9119;50.932;5.342;2022-09-13T06:18:22;19.10;99.90
17988;DHT22;9119;50.932;5.342;2022-09-13T06:20:49;19.10;99.90
17988;DHT22;9119;50.932;5.342;2022-09-13T06:23:15;19.10;99.90
17988;DHT22;9119;50.932;5.342;2022-09-13T06:25:42;19.20;99.90
17988;DHT22;9119;50.932;5.342;2022-09-13T06:28:08;19.20;99.90
17988;DHT22;9119;50.932;5.342;2022-09-13T06:30:33;19.30;99.90
17988;DHT22;9119;50.932;5.342;2022-09-13T06:32:59;19.50;99.90
17988;DHT22;9119;50.932;5.342;2022-09-13T06:35:25;19.30;99.90
17988;DHT22;9119;50.932;5.342;2022-09-13T06:37:54;19.30;99.90
17988;DHT22;9119;50.932;5.342;2022-09-13T06:40:21;19.40;99.90
17988;DHT22;9119;50.932;5.342;2022-09-13T06:42:47;19.30;99.90
17988;DHT22;9119;50.932;5.342;2022-09-13T06:45:13;19.20;99.90
17988;DHT22;9119;50.932;5.342;2022-09-13T06:47:39;19.20;99.90
17988;DHT22;9119;50.932;5.342;2022-09-13T06:50:05;19.30;99.90
17988;DHT22;9119;50.932;5.342;2022-09-13T06:52:32;19.30;99.90
17988;DHT22;9119;50.932;5.342;2022-09-13T06:54:57;19.30;99.90
17988;DHT22;9119;50.932;5.342;2022-09-13T06:57:23;19.40;99.90
17988;DHT22;9119;50.932;5.342;2022-09-13T06:59:49;19.40;99.90
17988;DHT22;9119;50.932;5.342;2022-09-13T07:02:15;19.50;99.90
17988;DHT22;9119;50.932;5.342;2022-09-13T07:04:40;19.40;99.90
17988;DHT22;9119;50.932;5.342;2022-09-13T07:07:06;19.50;99.90
17988;DHT22;9119;50.932;5.342;2022-09-13T07:09:32;19.60;99.90
17988;DHT22;9119;50.932;5.342;2022-09-13T07:11:59;19.70;99.90
17988;DHT22;9119;50.932;5.342;2022-09-13T07:14:27;19.70;99.90
17988;DHT22;9119;50.932;5.342;2022-09-13T07:16:53;19.80;99.90
17988;DHT22;9119;50.932;5.342;2022-09-13T07:19:24;19.80;99.90
17988;DHT22;9119;50.932;5.342;2022-09-13T07:21:54;19.80;99.90
17988;DHT22;9119;50.932;5.342;2022-09-13T07:24:20;19.80;99.90
17988;DHT22;9119;50.932;5.342;2022-09-13T07:26:47;20.00;99.90
17988;DHT22;9119;50.932;5.342;2022-09-13T07:29:15;20.20;99.90
17988;DHT22;9119;50.932;5.342;2022-09-13T07:31:44;20.30;99.90
17988;DHT22;9119;50.932;5.342;2022-09-13T07:34:16;20.30;99.90
17988;DHT22;9119;50.932;5.342;2022-09-13T07:36:42;20.30;99.90
17988;DHT22;9119;50.932;5.342;2022-09-13T07:39:09;20.40;99.90
17988;DHT22;9119;50.932;5.342;2022-09-13T07:41:35;20.40;99.90
17988;DHT22;9119;50.932;5.342;2022-09-13T07:44:01;20.40;99.90
17988;DHT22;9119;50.932;5.342;2022-09-13T07:46:29;20.40;99.90
17988;DHT22;9119;50.932;5.342;2022-09-13T07:48:57;20.50;99.90
17988;DHT22;9119;50.932;5.342;2022-09-13T07:51:26;20.50;99.90
17988;DHT22;9119;50.932;5.342;2022-09-13T07:53:56;20.60;99.90
17988;DHT22;9119;50.932;5.342;2022-09-13T07:56:24;20.80;99.90
17988;DHT22;9119;50.932;5.342;2022-09-13T07:58:51;21.00;99.90
17988;DHT22;9119;50.932;5.342;2022-09-13T08:01:44;21.10;99.90
17988;DHT22;9119;50.932;5.342;2022-09-13T08:04:13;21.30;99.90
17988;DHT22;9119;50.932;5.342;2022-09-13T08:06:40;21.30;99.90
17988;DHT22;9119;50.932;5.342;2022-09-13T08:09:08;21.20;99.90
17988;DHT22;9119;50.932;5.342;2022-09-13T08:11:37;21.40;99.90
17988;DHT22;9119;50.932;5.342;2022-09-13T08:14:04;21.50;99.90
17988;DHT22;9119;50.932;5.342;2022-09-13T08:16:30;21.50;99.90
17988;DHT22;9119;50.932;5.342;2022-09-13T08:18:58;21.50;99.90
17988;DHT22;9119;50.932;5.342;2022-09-13T08:21:25;21.40;99.90
17988;DHT22;9119;50.932;5.342;2022-09-13T08:23:55;21.50;99.90
17988;DHT22;9119;50.932;5.342;2022-09-13T08:26:21;21.50;99.90
17988;DHT22;9119;50.932;5.342;2022-09-13T08:28:46;21.60;99.90
17988;DHT22;9119;50.932;5.342;2022-09-13T08:31:14;21.80;99.90
17988;DHT22;9119;50.932;5.342;2022-09-13T08:33:46;22.10;99.90
17988;DHT22;9119;50.932;5.342;2022-09-13T08:36:14;22.30;99.90
17988;DHT22;9119;50.932;5.342;2022-09-13T08:38:47;22.50;99.90
17988;DHT22;9119;50.932;5.342;2022-09-13T08:44:37;23.20;99.90
17988;DHT22;9119;50.932;5.342;2022-09-13T08:47:34;23.30;99.90
17988;DHT22;9119;50.932;5.342;2022-09-13T08:50:24;23.10;99.90
17988;DHT22;9119;50.932;5.342;2022-09-13T08:56:02;23.10;99.90
17988;DHT22;9119;50.932;5.342;2022-09-13T09:01:07;23.10;99.90
17988;DHT22;9119;50.932;5.342;2022-09-13T09:03:48;23.50;99.90
17988;DHT22;9119;50.932;5.342;2022-09-13T09:06:17;23.70;99.90
17988;DHT22;9119;50.932;5.342;2022-09-13T09:08:50;23.90;99.90
17988;DHT22;9119;50.932;5.342;2022-09-13T09:13:59;24.00;99.90
17988;DHT22;9119;50.932;5.342;2022-09-13T09:19:33;24.60;99.90
17988;DHT22;9119;50.932;5.342;2022-09-13T09:21:59;25.00;99.90
17988;DHT22;9119;50.932;5.342;2022-09-13T09:24:26;25.00;99.90
17988;DHT22;9119;50.932;5.342;2022-09-13T09:26:54;24.90;99.90
17988;DHT22;9119;50.932;5.342;2022-09-13T09:29:30;24.90;99.90
17988;DHT22;9119;50.932;5.342;2022-09-13T09:32:14;25.00;99.90
17988;DHT22;9119;50.932;5.342;2022-09-13T09:37:18;24.80;99.90
17988;DHT22;9119;50.932;5.342;2022-09-13T09:39:46;24.80;99.90
17988;DHT22;9119;50.932;5.342;2022-09-13T09:42:13;24.90;99.90
17988;DHT22;9119;50.932;5.342;2022-09-13T09:44:44;24.70;99.90
17988;DHT22;9119;50.932;5.342;2022-09-13T09:47:13;24.60;99.90
17988;DHT22;9119;50.932;5.342;2022-09-13T09:49:46;24.40;99.90
17988;DHT22;9119;50.932;5.342;2022-09-13T09:55:30;24.20;99.90
17988;DHT22;9119;50.932;5.342;2022-09-13T09:58:06;24.30;99.90
17988;DHT22;9119;50.932;5.342;2022-09-13T10:00:52;24.70;99.90
17988;DHT22;9119;50.932;5.342;2022-09-13T10:03:20;25.50;99.90
17988;DHT22;9119;50.932;5.342;2022-09-13T10:05:48;26.20;99.90
17988;DHT22;9119;50.932;5.342;2022-09-13T10:08:32;26.90;99.90
17988;DHT22;9119;50.932;5.342;2022-09-13T10:10:58;27.50;99.90
17988;DHT22;9119;50.932;5.342;2022-09-13T10:13:26;27.80;99.90
17988;DHT22;9119;50.932;5.342;2022-09-13T10:18:21;28.60;99.90
17988;DHT22;9119;50.932;5.342;2022-09-13T10:21:05;28.40;99.90
17988;DHT22;9119;50.932;5.342;2022-09-13T10:23:35;27.50;99.90
17988;DHT22;9119;50.932;5.342;2022-09-13T10:26:10;27.10;99.90
17988;DHT22;9119;50.932;5.342;2022-09-13T10:29:06;26.60;99.90
17988;DHT22;9119;50.932;5.342;2022-09-13T10:31:44;26.10;99.90
17988;DHT22;9119;50.932;5.342;2022-09-13T10:34:17;25.80;99.90
17988;DHT22;9119;50.932;5.342;2022-09-13T10:37:18;25.80;99.90
17988;DHT22;9119;50.932;5.342;2022-09-13T10:39:59;25.90;99.90
17988;DHT22;9119;50.932;5.342;2022-09-13T10:42:27;25.90;99.90
17988;DHT22;9119;50.932;5.342;2022-09-13T10:44:58;25.90;99.90
17988;DHT22;9119;50.932;5.342;2022-09-13T10:47:42;25.90;99.90
17988;DHT22;9119;50.932;5.342;2022-09-13T10:50:27;25.80;99.90
17988;DHT22;9119;50.932;5.342;2022-09-13T10:52:55;25.80;99.90
17988;DHT22;9119;50.932;5.342;2022-09-13T10:58:10;25.50;99.90
17988;DHT22;9119;50.932;5.342;2022-09-13T11:06:29;25.90;99.90
17988;DHT22;9119;50.932;5.342;2022-09-13T11:20:29;25.20;99.90
17988;DHT22;9119;50.932;5.342;2022-09-13T11:25:47;25.50;99.90
17988;DHT22;9119;50.932;5.342;2022-09-13T11:55:37;25.80;99.90
17988;DHT22;9119;50.932;5.342;2022-09-13T11:58:17;25.90;99.90
17988;DHT22;9119;50.932;5.342;2022-09-13T12:00:52;26.00;99.90
17988;DHT22;9119;50.932;5.342;2022-09-13T12:03:44;26.10;99.90
17988;DHT22;9119;50.932;5.342;2022-09-13T12:06:19;26.00;99.90
17988;DHT22;9119;50.932;5.342;2022-09-13T12:08:51;25.90;99.90
17988;DHT22;9119;50.932;5.342;2022-09-13T12:11:27;25.70;99.90
17988;DHT22;9119;50.932;5.342;2022-09-13T12:14:10;25.80;99.90
17988;DHT22;9119;50.932;5.342;2022-09-13T12:16:37;25.80;99.90
17988;DHT22;9119;50.932;5.342;2022-09-13T12:19:15;25.80;99.90
17988;DHT22;9119;50.932;5.342;2022-09-13T12:21:43;25.90;99.90
17988;DHT22;9119;50.932;5.342;2022-09-13T12:24:20;26.00;99.90
17988;DHT22;9119;50.932;5.342;2022-09-13T12:27:09;26.10;99.90
17988;DHT22;9119;50.932;5.342;2022-09-13T12:29:43;26.20;99.90
17988;DHT22;9119;50.932;5.342;2022-09-13T12:32:09;26.10;99.90
17988;DHT22;9119;50.932;5.342;2022-09-13T12:34:52;25.90;99.90
17988;DHT22;9119;50.932;5.342;2022-09-13T12:54:38;26.00;99.90
17988;DHT22;9119;50.932;5.342;2022-09-13T13:05:33;26.20;99.90
17988;DHT22;9119;50.932;5.342;2022-09-13T13:08:03;26.20;99.90
17988;DHT22;9119;50.932;5.342;2022-09-13T13:10:34;26.30;99.90
17988;DHT22;9119;50.932;5.342;2022-09-13T13:13:32;26.40;99.90
17988;DHT22;9119;50.932;5.342;2022-09-13T13:16:02;26.40;99.90
17988;DHT22;9119;50.932;5.342;2022-09-13T13:23:34;26.20;99.90
17988;DHT22;9119;50.932;5.342;2022-09-13T13:26:12;26.40;99.90
17988;DHT22;9119;50.932;5.342;2022-09-13T13:34:02;26.30;99.90
17988;DHT22;9119;50.932;5.342;2022-09-13T13:39:07;25.90;99.90
17988;DHT22;9119;50.932;5.342;2022-09-13T13:46:46;26.10;99.90
17988;DHT22;9119;50.932;5.342;2022-09-13T13:52:31;26.00;99.90
17988;DHT22;9119;50.932;5.342;2022-09-13T14:00:19;25.70;99.90
17988;DHT22;9119;50.932;5.342;2022-09-13T14:19:08;25.40;99.90
17988;DHT22;9119;50.932;5.342;2022-09-13T14:21:40;25.30;99.90
17988;DHT22;9119;50.932;5.342;2022-09-13T14:24:14;25.20;99.90
17988;DHT22;9119;50.932;5.342;2022-09-13T14:26:41;25.20;99.90
17988;DHT22;9119;50.932;5.342;2022-09-13T14:29:07;25.10;99.90
17988;DHT22;9119;50.932;5.342;2022-09-13T14:31:34;25.10;99.90
17988;DHT22;9119;50.932;5.342;2022-09-13T14:34:01;25.10;99.90
17988;DHT22;9119;50.932;5.342;2022-09-13T14:36:27;25.00;99.90
17988;DHT22;9119;50.932;5.342;2022-09-13T14:38:58;24.90;99.90
17988;DHT22;9119;50.932;5.342;2022-09-13T14:41:36;24.90;99.90
17988;DHT22;9119;50.932;5.342;2022-09-13T14:44:21;24.90;99.90
17988;DHT22;9119;50.932;5.342;2022-09-13T14:49:33;24.80;99.90
17988;DHT22;9119;50.932;5.342;2022-09-13T14:52:14;24.80;99.90
17988;DHT22;9119;50.932;5.342;2022-09-13T14:54:46;24.70;99.90
17988;DHT22;9119;50.932;5.342;2022-09-13T14:57:25;24.60;99.90
17988;DHT22;9119;50.932;5.342;2022-09-13T14:59:55;24.60;99.90
17988;DHT22;9119;50.932;5.342;2022-09-13T15:02:26;24.50;99.90
17988;DHT22;9119;50.932;5.342;2022-09-13T15:04:57;24.40;99.90
17988;DHT22;9119;50.932;5.342;2022-09-13T15:07:37;24.40;99.90
17988;DHT22;9119;50.932;5.342;2022-09-13T15:20:25;23.80;99.90
17988;DHT22;9119;50.932;5.342;2022-09-13T15:22:52;23.80;99.90
17988;DHT22;9119;50.932;5.342;2022-09-13T15:25:28;23.80;99.90
17988;DHT22;9119;50.932;5.342;2022-09-13T15:27:56;23.70;99.90
17988;DHT22;9119;50.932;5.342;2022-09-13T15:30:31;23.70;99.90
17988;DHT22;9119;50.932;5.342;2022-09-13T15:35:44;23.70;99.90
17988;DHT22;9119;50.932;5.342;2022-09-13T15:38:30;23.80;99.90
17988;DHT22;9119;50.932;5.342;2022-09-13T15:41:13;23.60;99.90
17988;DHT22;9119;50.932;5.342;2022-09-13T15:43:39;23.50;99.90
17988;DHT22;9119;50.932;5.342;2022-09-13T15:46:05;23.40;99.90
17988;DHT22;9119;50.932;5.342;2022-09-13T15:48:34;23.30;99.90
17988;DHT22;9119;50.932;5.342;2022-09-13T15:51:11;23.30;99.90
17988;DHT22;9119;50.932;5.342;2022-09-13T15:53:40;23.30;99.90
17988;DHT22;9119;50.932;5.342;2022-09-13T15:56:07;23.30;99.90
17988;DHT22;9119;50.932;5.342;2022-09-13T15:58:34;23.20;99.90
17988;DHT22;9119;50.932;5.342;2022-09-13T16:01:00;23.10;99.90
17988;DHT22;9119;50.932;5.342;2022-09-13T16:03:25;23.10;99.90
17988;DHT22;9119;50.932;5.342;2022-09-13T16:05:51;23.00;99.90
17988;DHT22;9119;50.932;5.342;2022-09-13T16:08:18;23.00;99.90
17988;DHT22;9119;50.932;5.342;2022-09-13T16:10:43;23.00;99.90
17988;DHT22;9119;50.932;5.342;2022-09-13T16:13:09;23.10;99.90
17988;DHT22;9119;50.932;5.342;2022-09-13T16:15:35;23.10;99.90
17988;DHT22;9119;50.932;5.342;2022-09-13T16:18:01;23.00;99.90
17988;DHT22;9119;50.932;5.342;2022-09-13T16:20:27;23.00;99.90
17988;DHT22;9119;50.932;5.342;2022-09-13T16:22:53;23.00;99.90
17988;DHT22;9119;50.932;5.342;2022-09-13T16:25:19;22.90;99.90
17988;DHT22;9119;50.932;5.342;2022-09-13T16:27:45;22.90;99.90
17988;DHT22;9119;50.932;5.342;2022-09-13T16:30:13;22.80;99.90
17988;DHT22;9119;50.932;5.342;2022-09-13T16:32:39;22.80;99.90
17988;DHT22;9119;50.932;5.342;2022-09-13T16:35:06;22.60;99.90
17988;DHT22;9119;50.932;5.342;2022-09-13T16:37:33;22.40;99.90
17988;DHT22;9119;50.932;5.342;2022-09-13T16:39:59;22.20;99.90
17988;DHT22;9119;50.932;5.342;2022-09-13T16:42:25;22.10;99.90
17988;DHT22;9119;50.932;5.342;2022-09-13T16:44:50;22.10;99.90
17988;DHT22;9119;50.932;5.342;2022-09-13T16:47:16;22.20;99.90
17988;DHT22;9119;50.932;5.342;2022-09-13T16:49:42;22.20;99.90
17988;DHT22;9119;50.932;5.342;2022-09-13T16:52:07;22.20;99.90
17988;DHT22;9119;50.932;5.342;2022-09-13T16:54:34;22.20;99.90
17988;DHT22;9119;50.932;5.342;2022-09-13T16:57:05;22.10;99.90
17988;DHT22;9119;50.932;5.342;2022-09-13T16:59:31;22.10;99.90
17988;DHT22;9119;50.932;5.342;2022-09-13T17:01:57;22.00;99.90
17988;DHT22;9119;50.932;5.342;2022-09-13T17:04:23;21.90;99.90
17988;DHT22;9119;50.932;5.342;2022-09-13T17:06:49;21.70;99.90
17988;DHT22;9119;50.932;5.342;2022-09-13T17:09:15;21.60;99.90
17988;DHT22;9119;50.932;5.342;2022-09-13T17:11:42;21.50;99.90
17988;DHT22;9119;50.932;5.342;2022-09-13T17:14:10;21.50;99.90
17988;DHT22;9119;50.932;5.342;2022-09-13T17:16:41;21.40;99.90
17988;DHT22;9119;50.932;5.342;2022-09-13T17:19:21;21.30;99.90
17988;DHT22;9119;50.932;5.342;2022-09-13T17:21:49;21.10;99.90
17988;DHT22;9119;50.932;5.342;2022-09-13T17:24:15;21.10;99.90
17988;DHT22;9119;50.932;5.342;2022-09-13T17:26:44;21.00;99.90
17988;DHT22;9119;50.932;5.342;2022-09-13T17:29:11;20.90;99.90
17988;DHT22;9119;50.932;5.342;2022-09-13T17:31:38;20.90;99.90
17988;DHT22;9119;50.932;5.342;2022-09-13T17:34:04;20.80;99.90
17988;DHT22;9119;50.932;5.342;2022-09-13T17:36:29;20.80;99.90
17988;DHT22;9119;50.932;5.342;2022-09-13T17:38:56;20.80;99.90
17988;DHT22;9119;50.932;5.342;2022-09-13T17:41:23;20.80;99.90
17988;DHT22;9119;50.932;5.342;2022-09-13T17:43:49;20.70;99.90
17988;DHT22;9119;50.932;5.342;2022-09-13T17:46:17;20.90;99.90
17988;DHT22;9119;50.932;5.342;2022-09-13T17:48:46;20.80;99.90
17988;DHT22;9119;50.932;5.342;2022-09-13T17:51:14;20.70;99.90
17988;DHT22;9119;50.932;5.342;2022-09-13T17:53:42;20.80;99.90
17988;DHT22;9119;50.932;5.342;2022-09-13T17:56:09;20.80;99.90
17988;DHT22;9119;50.932;5.342;2022-09-13T17:58:35;20.80;99.90
17988;DHT22;9119;50.932;5.342;2022-09-13T18:01:03;20.80;99.90
17988;DHT22;9119;50.932;5.342;2022-09-13T18:03:29;20.80;99.90
17988;DHT22;9119;50.932;5.342;2022-09-13T18:05:57;20.80;99.90
17988;DHT22;9119;50.932;5.342;2022-09-13T18:08:27;20.80;99.90
17988;DHT22;9119;50.932;5.342;2022-09-13T18:10:54;20.80;99.90
17988;DHT22;9119;50.932;5.342;2022-09-13T18:13:19;20.80;99.90
17988;DHT22;9119;50.932;5.342;2022-09-13T18:15:59;20.80;99.90
17988;DHT22;9119;50.932;5.342;2022-09-13T18:18:25;20.90;99.90
17988;DHT22;9119;50.932;5.342;2022-09-13T18:20:50;20.90;99.90
17988;DHT22;9119;50.932;5.342;2022-09-13T18:23:16;20.80;99.90
17988;DHT22;9119;50.932;5.342;2022-09-13T18:25:41;21.00;99.90
17988;DHT22;9119;50.932;5.342;2022-09-13T18:28:07;20.80;99.90
17988;DHT22;9119;50.932;5.342;2022-09-13T18:30:32;20.70;99.90
17988;DHT22;9119;50.932;5.342;2022-09-13T18:32:58;20.70;99.90
17988;DHT22;9119;50.932;5.342;2022-09-13T18:35:24;20.70;99.90
17988;DHT22;9119;50.932;5.342;2022-09-13T18:37:50;20.70;99.90
17988;DHT22;9119;50.932;5.342;2022-09-13T18:40:16;20.80;99.90
17988;DHT22;9119;50.932;5.342;2022-09-13T18:42:42;20.80;99.90
17988;DHT22;9119;50.932;5.342;2022-09-13T18:45:08;20.70;99.90
17988;DHT22;9119;50.932;5.342;2022-09-13T18:47:33;20.70;99.90
17988;DHT22;9119;50.932;5.342;2022-09-13T18:49:59;20.80;99.90
17988;DHT22;9119;50.932;5.342;2022-09-13T18:52:26;20.70;99.90
17988;DHT22;9119;50.932;5.342;2022-09-13T18:54:52;20.70;99.90
17988;DHT22;9119;50.932;5.342;2022-09-13T18:57:18;20.70;99.90
17988;DHT22;9119;50.932;5.342;2022-09-13T18:59:43;20.70;99.90
17988;DHT22;9119;50.932;5.342;2022-09-13T19:02:10;20.60;99.90
17988;DHT22;9119;50.932;5.342;2022-09-13T19:04:36;20.60;99.90
17988;DHT22;9119;50.932;5.342;2022-09-13T19:07:01;20.60;99.90
17988;DHT22;9119;50.932;5.342;2022-09-13T19:09:33;20.60;99.90
17988;DHT22;9119;50.932;5.342;2022-09-13T19:12:00;20.70;99.90
17988;DHT22;9119;50.932;5.342;2022-09-13T19:14:27;20.70;99.90
17988;DHT22;9119;50.932;5.342;2022-09-13T19:16:57;20.70;99.90
17988;DHT22;9119;50.932;5.342;2022-09-13T19:19:25;20.70;99.90
17988;DHT22;9119;50.932;5.342;2022-09-13T19:21:51;20.60;99.90
17988;DHT22;9119;50.932;5.342;2022-09-13T19:24:16;20.60;99.90
17988;DHT22;9119;50.932;5.342;2022-09-13T19:26:43;20.60;99.90
17988;DHT22;9119;50.932;5.342;2022-09-13T19:29:14;20.60;99.90
17988;DHT22;9119;50.932;5.342;2022-09-13T19:31:42;20.60;99.90
17988;DHT22;9119;50.932;5.342;2022-09-13T19:34:09;20.60;99.90
17988;DHT22;9119;50.932;5.342;2022-09-13T19:36:37;20.60;99.90
17988;DHT22;9119;50.932;5.342;2022-09-13T19:39:04;20.60;99.90
17988;DHT22;9119;50.932;5.342;2022-09-13T19:41:30;20.60;99.90
17988;DHT22;9119;50.932;5.342;2022-09-13T19:43:58;20.60;99.90
17988;DHT22;9119;50.932;5.342;2022-09-13T19:46:27;20.60;99.90